Time;durP1;ratioP1;P1;durP2;ratioP2;P2;SDS_P1;SDS_P2;PMS_P1;PMS_P2;Temp;Humidity;BMP_temperature;BMP_pressure;BME280_temperature;BME280_humidity;BME280_pressure;Samples;Min_cycle;Max_cycle;Signal;HPM_P1;HPM_P2
2021/11/24 00:00:47;;;;;;;56.72;34.50;;;6.50;99.90;;;;;;5029930;28;20061;-66
2021/11/24 00:03:13;;;;;;;59.03;35.22;;;6.40;99.90;;;;;;5028791;28;20115;-66
2021/11/24 00:05:39;;;;;;;50.15;34.22;;;6.50;99.90;;;;;;5029030;28;20014;-65
2021/11/24 00:08:05;;;;;;;52.13;34.28;;;;;;;;;;5029662;28;20037;-65
2021/11/24 00:10:34;;;;;;;57.58;33.55;;;;;;;;;;5031695;28;20036;-65
2021/11/24 00:13:00;;;;;;;58.05;33.20;;;;;;;;;;5032626;28;20557;-67
2021/11/24 00:15:26;;;;;;;54.47;34.55;;;;;;;;;;5032711;28;20148;-65
2021/11/24 00:17:52;;;;;;;63.70;35.28;;;;;;;;;;5034209;28;20028;-65
2021/11/24 00:20:19;;;;;;;67.82;34.28;;;;;;;;;;5034442;28;20032;-65
2021/11/24 00:22:45;;;;;;;58.83;35.33;;;;;;;;;;5032774;28;20030;-65
2021/11/24 00:25:11;;;;;;;56.85;33.80;;;;;;;;;;5034174;28;20044;-66
2021/11/24 00:27:37;;;;;;;63.25;35.70;;;;;;;;;;5034253;28;20026;-66
2021/11/24 00:30:04;;;;;;;80.55;39.20;;;;;;;;;;5033021;28;20022;-66
2021/11/24 00:32:30;;;;;;;69.43;36.75;;;;;;;;;;5033880;28;20029;-65
2021/11/24 00:34:56;;;;;;;83.05;38.85;;;;;;;;;;5032926;28;20031;-66
2021/11/24 00:37:22;;;;;;;67.75;37.30;;;;;;;;;;5032648;28;20120;-65
2021/11/24 00:39:48;;;;;;;66.88;36.58;;;;;;;;;;5033533;28;20025;-65
2021/11/24 00:42:14;;;;;;;61.80;35.65;;;;;;;;;;5032269;28;20054;-65
2021/11/24 00:44:40;;;;;;;60.60;36.65;;;;;;;;;;5032578;28;20025;-66
2021/11/24 00:47:08;;;;;;;59.50;35.85;;;;;;;;;;5032673;28;20492;-66
2021/11/24 00:49:34;;;;;;;67.07;36.60;;;;;;;;;;5033443;28;20029;-65
2021/11/24 00:52:00;;;;;;;60.00;33.25;;;;;;;;;;5032363;28;20037;-65
2021/11/24 00:54:26;;;;;;;56.72;36.28;;;;;;;;;;5032141;28;20401;-65
2021/11/24 00:56:52;;;;;;;67.07;35.88;;;;;;;;;;5033498;28;20026;-65
2021/11/24 00:59:18;;;;;;;59.75;34.67;;;;;;;;;;5033808;28;20025;-65
2021/11/24 01:01:44;;;;;;;57.92;37.42;;;;;;;;;;5032103;28;20024;-66
2021/11/24 01:04:10;;;;;;;65.30;35.88;;;;;;;;;;5033503;28;20030;-66
2021/11/24 01:06:36;;;;;;;64.07;35.58;;;;;;;;;;5033661;28;20031;-66
2021/11/24 01:09:03;;;;;;;65.30;36.63;;;;;;;;;;5033628;28;20037;-65
2021/11/24 01:11:29;;;;;;;56.28;34.45;;;;;;;;;;5032199;28;20029;-65
2021/11/24 01:13:54;;;;;;;75.75;35.78;;;;;;;;;;5032924;28;20545;-66
2021/11/24 01:16:20;;;;;;;62.08;34.83;;;;;;;;;;5031993;28;20032;-66
2021/11/24 01:18:46;;;;;;;64.43;36.15;;;;;;;;;;5033315;28;20381;-66
2021/11/24 01:21:12;;;;;;;60.72;34.85;;;;;;;;;;5031188;28;20017;-64
2021/11/24 01:23:38;;;;;;;70.63;35.42;;;;;;;;;;5032927;28;20030;-65
2021/11/24 01:26:05;;;;;;;64.47;35.35;;;;;;;;;;5031897;28;20428;-66
2021/11/24 01:28:31;;;;;;;58.13;32.70;;;;;;;;;;5033138;28;20029;-65
2021/11/24 01:30:57;;;;;;;66.72;34.67;;;;;;;;;;5033028;28;20171;-66
2021/11/24 01:33:23;;;;;;;64.55;34.63;;;;;;;;;;5032730;28;20029;-65
2021/11/24 01:35:49;;;;;;;68.97;34.88;;;;;;;;;;5033063;28;20541;-66
2021/11/24 01:38:15;;;;;;;69.80;38.47;;;;;;;;;;5032958;28;20021;-66
2021/11/24 01:40:41;;;;;;;73.88;35.33;;;;;;;;;;5032933;28;20026;-66
2021/11/24 01:43:08;;;;;;;68.28;37.28;;;;;;;;;;5031524;28;20022;-66
2021/11/24 01:45:35;;;;;;;85.55;38.00;;;;;;;;;;5031604;28;20025;-65
2021/11/24 01:48:01;;;;;;;88.93;37.28;;;;;;;;;;5031575;28;20036;-66
2021/11/24 01:50:28;;;;;;;97.32;37.28;;;;;;;;;;5031105;28;20029;-65
2021/11/24 01:52:54;;;;;;;89.80;37.55;;;;;;;;;;5032308;28;20039;-66
2021/11/24 01:55:20;;;;;;;71.40;36.88;;;;;;;;;;5032767;28;20032;-66
2021/11/24 01:57:48;;;;;;;81.30;38.03;;;;;;;;;;5032748;28;20173;-66
2021/11/24 02:00:16;;;;;;;125.45;38.90;;;;;;;;;;5032579;28;20018;-66
2021/11/24 02:02:42;;;;;;;72.53;35.63;;;;;;;;;;5032162;28;20466;-65
2021/11/24 02:05:08;;;;;;;73.95;34.00;;;;;;;;;;5032406;28;20076;-66
2021/11/24 02:07:34;;;;;;;70.25;30.98;;;;;;;;;;5032477;28;20475;-65
2021/11/24 02:10:00;;;;;;;86.82;35.95;;;;;;;;;;5032461;28;20116;-64
2021/11/24 02:12:26;;;;;;;81.88;36.22;;;;;;;;;;5030741;28;20064;-66
2021/11/24 02:14:52;;;;;;;90.97;35.92;;;;;;;;;;5030954;28;20018;-66
2021/11/24 02:17:18;;;;;;;83.65;37.00;;;;;;;;;;5030986;28;20529;-65
2021/11/24 02:19:44;;;;;;;111.10;39.80;;;;;;;;;;5032406;28;20366;-65
2021/11/24 02:22:11;;;;;;;82.43;36.78;;;;;;;;;;5032053;28;20080;-66
2021/11/24 02:24:37;;;;;;;111.25;39.22;;;;;;;;;;5032315;28;20048;-66
2021/11/24 02:27:06;;;;;;;86.78;36.05;;;;;;;;;;5032167;28;20094;-65
2021/11/24 02:29:32;;;;;;;78.15;38.17;;;;;;;;;;5032337;28;20493;-65
2021/11/24 02:31:59;;;;;;;85.13;37.97;;;;;;;;;;5030516;28;20037;-65
2021/11/24 02:34:26;;;;;;;61.72;35.28;;;;;;;;;;5030855;28;20053;-65
2021/11/24 02:36:52;;;;;;;75.80;35.92;;;;;;;;;;5031856;28;20036;-65
2021/11/24 02:39:18;;;;;;;87.57;38.55;;;;;;;;;;5031865;28;20021;-65
2021/11/24 02:41:44;;;;;;;80.07;35.95;;;;;;;;;;5031573;28;20028;-66
2021/11/24 02:44:15;;;;;;;78.78;37.42;;;;;;;;;;5031448;28;20027;-63
2021/11/24 02:46:41;;;;;;;79.13;37.45;;;;;;;;;;5030359;28;20384;-65
2021/11/24 02:49:07;;;;;;;62.72;35.53;;;;;;;;;;5031136;28;20169;-65
2021/11/24 02:51:33;;;;;;;108.97;41.00;;;;;;;;;;5031568;28;20099;-65
2021/11/24 02:53:59;;;;;;;111.05;41.53;;;;;;;;;;5031247;28;20405;-66
2021/11/24 02:56:25;;;;;;;97.35;39.20;;;;;;;;;;5031482;28;20056;-66
2021/11/24 02:58:50;;;;;;;81.15;35.47;;;;;;;;;;5031498;28;20727;-65
2021/11/24 03:01:17;;;;;;;100.63;38.75;;;;;;;;;;5030416;28;20022;-64
2021/11/24 03:03:43;;;;;;;83.75;37.08;;;;;;;;;;5031312;28;20366;-65
2021/11/24 03:06:09;;;;;;;80.05;37.53;;;;;;;;;;5031669;28;20446;-65
2021/11/24 03:08:35;;;;;;;97.32;37.60;;;;;;;;;;5030296;28;20068;-65
2021/11/24 03:11:01;;;;;;;80.40;38.38;;;;;;;;;;5029968;28;20091;-65
2021/11/24 03:13:27;;;;;;;95.45;39.42;;;;;;;;;;5029667;28;20029;-65
2021/11/24 03:15:53;;;;;;;75.63;38.85;;;;;;;;;;5029945;28;20026;-65
2021/11/24 03:18:19;;;;;;;105.75;41.17;;;;;;;;;;5029866;28;20087;-64
2021/11/24 03:20:45;;;;;;;84.00;37.75;;;;;;;;;;5029820;28;20427;-64
2021/11/24 03:23:11;;;;;;;73.85;38.45;;;;;;;;;;5030750;28;20069;-65
2021/11/24 03:25:37;;;;;;;76.68;38.45;;;;;;;;;;5029706;28;20021;-65
2021/11/24 03:28:03;;;;;;;124.03;45.35;;;;;;;;;;5030871;28;20183;-65
2021/11/24 03:30:30;;;;;;;79.22;40.10;;;;;;;;;;5030741;28;20025;-65
2021/11/24 03:32:56;;;;;;;66.45;38.80;;;;;;;;;;5030684;28;20108;-64
2021/11/24 03:35:23;;;;;;;72.25;37.47;;;;;;;;;;5030808;28;20029;-65
2021/11/24 03:37:52;;;;;;;81.72;39.70;;;;;;;;;;5029348;28;20319;-65
2021/11/24 03:40:19;;;;;;;85.07;40.15;;;;;;;;;;5030840;28;20477;-65
2021/11/24 03:42:46;;;;;;;96.70;38.33;;;;;;;;;;5030164;28;20061;-66
2021/11/24 03:45:13;;;;;;;69.40;35.70;;;;;;;;;;5037432;28;20059;-64
2021/11/24 03:47:39;;;;;;;89.93;39.90;;;;;;;;;;5037353;28;20028;-65
2021/11/24 03:50:06;;;;;;;66.82;36.70;;;;;;;;;;5036895;28;20053;-66
2021/11/24 03:52:32;;;;;;;54.40;34.13;;;;;;;;;;5035439;28;20048;-64
2021/11/24 03:54:59;;;;;;;61.28;36.05;;;;;;;;;;5037404;28;20136;-65
2021/11/24 03:57:25;;;;;;;66.00;35.97;;;;;;;;;;5037192;28;20029;-65
2021/11/24 03:59:51;;;;;;;62.38;37.03;;;;;;;;;;5035876;28;20052;-65
2021/11/24 04:02:17;;;;;;;63.72;36.67;;;;;;;;;;5036885;28;20021;-65
2021/11/24 04:04:43;;;;;;;61.35;36.75;;;;;;;;;;5035854;28;20459;-65
2021/11/24 04:07:09;;;;;;;77.95;38.83;;;;;;;;;;5037290;28;20025;-65
2021/11/24 04:09:35;;;;;;;117.65;44.25;;;;;;;;;;5037228;28;20405;-65
2021/11/24 04:12:01;;;;;;;72.57;39.95;;;;;;;;;;5035536;28;20025;-65
2021/11/24 04:14:27;;;;;;;59.97;35.83;;;;;;;;;;5035545;28;20079;-63
2021/11/24 04:16:53;;;;;;;73.55;39.63;;;;;;;;;;5035660;28;20053;-66
2021/11/24 04:19:19;;;;;;;70.07;39.67;;;;;;;;;;5037074;28;20048;-65
2021/11/24 04:21:45;;;;;;;66.65;36.13;;;;;;;;;;5036655;28;20021;-66
2021/11/24 04:24:11;;;;;;;54.13;34.08;;;;;;;;;;5036935;28;20466;-65
2021/11/24 04:26:37;;;;;;;50.63;32.50;;;;;;;;;;5036983;28;20072;-65
2021/11/24 04:29:03;;;;;;;57.88;34.08;;;;;;;;;;5035586;28;20033;-65
2021/11/24 04:31:29;;;;;;;56.72;34.80;;;;;;;;;;5036869;28;20028;-66
2021/11/24 04:33:55;;;;;;;56.20;35.17;;;;;;;;;;5036601;28;20029;-65
2021/11/24 04:36:21;;;;;;;66.05;34.90;;;;;;;;;;5036750;28;20056;-65
2021/11/24 04:38:48;;;;;;;55.70;35.22;;;;;;;;;;5037025;28;20398;-65
2021/11/24 04:41:14;;;;;;;54.70;34.38;;;;;;;;;;5036913;28;20091;-64
2021/11/24 04:43:44;;;;;;;50.05;32.90;;;;;;;;;;5035430;28;20026;-65
2021/11/24 04:46:12;;;;;;;63.63;32.53;;;;;;;;;;5035774;28;20176;-65
2021/11/24 04:48:38;;;;;;;60.72;34.75;;;;;;;;;;5035476;28;20454;-65
2021/11/24 04:51:04;;;;;;;56.08;34.72;;;;;;;;;;5037008;28;20502;-65
2021/11/24 04:53:30;;;;;;;55.95;33.45;;;;;;;;;;5035204;28;20052;-66
2021/11/24 04:55:57;;;;;;;62.10;36.15;;;;;;;;;;5032720;28;20497;-65
2021/11/24 04:58:23;;;;;;;67.95;33.72;;;;;;;;;;5033585;28;20029;-65
2021/11/24 05:00:49;;;;;;;53.63;32.17;;;;;;;;;;5033744;28;20029;-65
2021/11/24 05:03:16;;;;;;;49.53;32.88;;;;;;;;;;5031890;28;20553;-65
2021/11/24 05:05:42;;;;;;;58.67;34.38;;;;;;;;;;5033614;28;20057;-66
2021/11/24 05:08:08;;;;;;;61.85;32.75;;;;;;;;;;5032087;28;20026;-65
2021/11/24 05:10:34;;;;;;;58.33;34.60;;;;;;;;;;5033238;28;20123;-65
2021/11/24 05:13:00;;;;;;;59.25;37.25;;;;;;;;;;5032896;28;20664;-64
2021/11/24 05:15:31;;;;;;;69.78;37.03;;;;;;;;;;5033205;28;20022;-65
2021/11/24 05:18:02;;;;;;;69.65;38.85;;;;;;;;;;5033151;28;20113;-66
2021/11/24 05:20:30;;;;;;;68.22;35.08;;;;;;;;;;5033060;28;20021;-66
2021/11/24 05:22:59;;;;;;;86.53;35.75;;;;;;;;;;5032786;28;20049;-65
2021/11/24 05:25:25;;;;;;;73.10;35.78;;;;;;;;;;5033487;28;20013;-64
2021/11/24 05:27:51;;;;;;;74.35;35.63;;;;;;;;;;5033151;28;20060;-64
2021/11/24 05:30:17;;;;;;;67.03;37.00;;;;;;;;;;5032845;28;20061;-65
2021/11/24 05:32:43;;;;;;;97.30;38.55;;;;;;;;;;5031264;28;20057;-65
2021/11/24 05:35:09;;;;;;;74.90;36.33;;;;;;;;;;5032944;28;20053;-63
2021/11/24 05:37:35;;;;;;;79.18;36.88;;;;;;;;;;5032915;28;20397;-65
2021/11/24 05:40:01;;;;;;;66.05;37.10;;;;;;;;;;5032831;28;20022;-64
2021/11/24 05:42:28;;;;;;;93.20;40.95;;;;;;;;;;5031190;28;20069;-65
2021/11/24 05:45:03;;;;;;;90.28;38.45;;;;;;;;;;5032624;28;20024;-65
2021/11/24 05:50:15;;;;;;;63.22;35.60;;;;;;;;;;5032442;28;20059;-66
2021/11/24 05:52:41;;;;;;;63.85;36.63;;;;;;;;;;5032069;28;20417;-65
2021/11/24 05:55:07;;;;;;;70.40;34.90;;;;;;;;;;5056592;22;20057;-61
2021/11/24 05:57:33;;;;;;;52.17;32.22;;;;;;;;;;5033184;28;20033;-62
2021/11/24 05:59:59;;;;;;;57.03;33.33;;;;;;;;;;5033228;28;20071;-61
2021/11/24 06:02:25;;;;;;;56.78;34.83;;;;;;;;;;5033266;28;20030;-61
2021/11/24 06:04:51;;;;;;;57.83;34.83;;;;;;;;;;5031824;28;20120;-62
2021/11/24 06:07:17;;;;;;;66.63;34.00;;;;;;;;;;5031436;28;20125;-62
2021/11/24 06:09:43;;;;;;;55.42;32.72;;;;;;;;;;5030928;28;20544;-63
2021/11/24 06:12:09;;;;;;;71.00;32.50;;;;;;;;;;5032903;28;20033;-59
2021/11/24 06:14:35;;;;;;;66.95;33.40;;;;;;;;;;5032843;28;20422;-61
2021/11/24 06:17:01;;;;;;;66.35;32.63;;;;;;;;;;5033040;28;20108;-62
2021/11/24 06:19:27;;;;;;;56.00;31.95;;;;;;;;;;5031729;28;20017;-62
2021/11/24 06:21:53;;;;;;;63.30;32.05;;;;;;;;;;5032602;28;20088;-61
2021/11/24 06:24:19;;;;;;;59.60;33.55;;;;;;;;;;5031402;28;20053;-62
2021/11/24 06:26:45;;;;;;;51.13;32.65;;;;;;;;;;5031555;28;20429;-63
2021/11/24 06:29:11;;;;;;;54.72;31.73;;;;;;;;;;5031393;28;20041;-61
2021/11/24 06:31:37;;;;;;;54.13;30.83;;;;;;;;;;5032355;28;20072;-61
2021/11/24 06:34:03;;;;;;;54.72;30.40;;;;;;;;;;5032399;28;20025;-61
2021/11/24 06:36:29;;;;;;;51.17;30.55;;;;;;;;;;5032712;28;20480;-57
2021/11/24 06:38:55;;;;;;;56.38;32.47;;;;;;;;;;5032420;28;20021;-58
2021/11/24 06:41:21;;;;;;;55.83;31.95;;;;;;;;;;5033224;28;20492;-61
2021/11/24 06:43:47;;;;;;;57.80;32.50;;;;;;;;;;5032052;28;20075;-61
2021/11/24 06:46:13;;;;;;;60.10;32.60;;;;;;;;;;5032329;28;20022;-60
2021/11/24 06:48:39;;;;;;;82.97;34.88;;;;;;;;;;5032616;28;20030;-62
2021/11/24 06:51:05;;;;;;;60.17;32.47;;;;;;;;;;5032398;28;20025;-62
2021/11/24 06:53:31;;;;;;;60.45;35.08;;;;;;;;;;5031538;28;20037;-60
2021/11/24 06:55:57;;;;;;;57.72;33.88;;;;;;;;;;5030570;28;20409;-61
2021/11/24 06:58:23;;;;;;;61.75;33.40;;;;;;;;;;5031602;28;20029;-61
2021/11/24 07:00:49;;;;;;;60.90;33.83;;;;;;;;;;5029281;28;20025;-60
2021/11/24 07:03:15;;;;;;;65.00;34.10;;;;;;;;;;5031170;28;20022;-61
2021/11/24 07:05:41;;;;;;;57.40;33.20;;;;;;;;;;5031463;28;20029;-60
2021/11/24 07:08:07;;;;;;;57.35;33.13;;;;;;;;;;5030214;28;20071;-61
2021/11/24 07:10:33;;;;;;;69.00;34.55;;;;;;;;;;5029955;28;20029;-56
2021/11/24 07:12:59;;;;;;;73.10;34.78;;;;;;;;;;5030932;28;20037;-65
2021/11/24 07:15:26;;;;;;;65.90;35.15;;;;;;;;;;5031630;28;20175;-58
2021/11/24 07:17:52;;;;;;;59.28;32.85;;;;;;;;;;5030766;28;20060;-61
2021/11/24 07:20:18;;;;;;;61.63;33.05;;;;;;;;;;5031608;28;20362;-59
2021/11/24 07:22:44;;;;;;;73.97;33.40;;;;;;;;;;5029897;28;20032;-62
2021/11/24 07:25:11;;;;;;;63.42;34.63;;;;;;;;;;5031704;28;20045;-61
2021/11/24 07:27:37;;;;;;;63.72;31.92;;;;;;;;;;5031680;28;20033;-60
2021/11/24 07:30:04;;;;;;;60.28;31.15;;;;;;;;;;5031382;28;20432;-56
2021/11/24 07:32:30;;;;;;;51.85;31.85;;;;;;;;;;5031605;28;20099;-58
2021/11/24 07:34:56;;;;;;;64.10;33.38;;;;;;;;;;5031267;28;20033;-59
2021/11/24 07:37:22;;;;;;;70.47;34.08;;;;;;;;;;5031734;28;20022;-61
2021/11/24 07:39:48;;;;;;;54.75;30.25;;;;;;;;;;5031294;28;20093;-63
2021/11/24 07:42:14;;;;;;;53.80;30.67;;;;;;;;;;5030136;28;20021;-58
2021/11/24 07:44:40;;;;;;;58.70;30.33;;;;;;;;;;5030068;28;20103;-57
2021/11/24 07:47:06;;;;;;;55.80;30.10;;;;;;;;;;5030180;28;20121;-61
2021/11/24 07:49:32;;;;;;;42.50;27.17;;;;;;;;;;5031523;28;20022;-61
2021/11/24 07:51:58;;;;;;;42.83;27.30;;;;;;;;;;5031189;28;20076;-62
2021/11/24 07:54:24;;;;;;;44.15;27.55;;;;;;;;;;5031278;28;20555;-61
2021/11/24 07:56:50;;;;;;;44.92;27.95;;;;;;;;;;5029925;28;20025;-63
2021/11/24 07:59:17;;;;;;;49.70;30.02;;;;;;;;;;5031428;28;20052;-59
2021/11/24 08:01:43;;;;;;;42.38;27.17;;;;;;;;;;5029771;28;20042;-62
2021/11/24 08:04:09;;;;;;;44.60;30.30;;;;;;;;;;5031596;28;20029;-60
2021/11/24 08:06:35;;;;;;;46.65;26.70;;;;;;;;;;5031711;28;20022;-62
2021/11/24 08:09:01;;;;;;;47.10;28.73;;;;;;;;;;5030068;28;20022;-63
2021/11/24 08:11:27;;;;;;;50.65;29.13;;;;;;;;;;5031472;28;20025;-63
2021/11/24 08:13:53;;;;;;;45.60;28.48;;;;;;;;;;5031119;28;20096;-62
2021/11/24 08:16:19;;;;;;;49.60;29.48;;;;;;;;;;5031506;28;20025;-63
2021/11/24 08:18:45;;;;;;;46.60;28.40;;;;;;;;;;5031111;28;20100;-63
2021/11/24 08:21:11;;;;;;;53.13;30.95;;;;;;;;;;5031132;28;20492;-69
2021/11/24 08:23:37;;;;;;;52.65;31.20;;;;;;;;;;5031055;28;20022;-68
2021/11/24 08:26:03;;;;;;;62.08;32.13;;;;;;;;;;5031153;28;20488;-68
2021/11/24 08:28:29;;;;;;;64.53;34.47;;;;;;;;;;5030507;28;20120;-69
2021/11/24 08:30:55;;;;;;;52.70;29.73;;;;;;;;;;5034975;28;20064;-68
2021/11/24 08:33:21;;;;;;;65.85;33.22;;;;;;;;;;5033482;28;20064;-68
2021/11/24 08:35:48;;;;;;;65.57;32.90;;;;;;;;;;5033611;28;20416;-67
2021/11/24 08:38:14;;;;;;;67.88;33.78;;;;;;;;;;5034711;28;20025;-68
2021/11/24 08:40:40;;;;;;;66.78;34.67;;;;;;;;;;5034708;28;20021;-68
2021/11/24 08:43:06;;;;;;;64.95;34.03;;;;;;;;;;5034536;28;20544;-65
2021/11/24 08:45:34;;;;;;;70.00;31.30;;;;;;;;;;5034510;28;20076;-66
2021/11/24 08:48:02;;;;;;;56.40;31.27;;;;;;;;;;5034809;28;20029;-66
2021/11/24 08:50:29;;;;;;;62.20;32.58;;;;;;;;;;5034304;28;20024;-65
2021/11/24 08:52:55;;;;;;;54.90;32.22;;;;;;;;;;5032833;28;20627;-65
2021/11/24 08:55:21;;;;;;;54.17;31.02;;;;;;;;;;5034274;28;20121;-66
2021/11/24 08:57:48;;;;;;;47.75;30.35;;;;;;;;;;5034644;28;20018;-66
2021/11/24 09:00:15;;;;;;;48.63;30.38;;;;;;;;;;5033195;28;20026;-66
2021/11/24 09:02:43;;;;;;;49.60;29.83;;;;;;;;;;5033024;28;20020;-66
2021/11/24 09:05:10;;;;;;;93.93;44.38;;;;;;;;;;5034578;28;20033;-66
2021/11/24 09:07:36;;;;;;;66.88;39.15;;;;;;;;;;5034315;28;20044;-66
2021/11/24 09:10:04;;;;;;;72.55;38.40;;;;;;;;;;5034213;28;20060;-65
2021/11/24 09:12:30;;;;;;;54.08;30.75;;;;;;;;;;5034199;28;20105;-65
2021/11/24 09:14:56;;;;;;;51.47;31.30;;;;;;;;;;5033056;28;20037;-64
2021/11/24 09:17:22;;;;;;;47.40;29.45;;;;;;;;;;5034216;28;20076;-66
2021/11/24 09:19:49;;;;;;;43.67;27.25;;;;;;;;;;5034194;28;20433;-66
2021/11/24 09:22:15;;;;;;;37.25;25.42;;;;;;;;;;5033771;28;20017;-65
2021/11/24 09:24:41;;;;;;;32.35;24.20;;;;;;;;;;5033870;28;20029;-66
2021/11/24 09:27:14;;;;;;;35.13;23.05;;;;;;;;;;5032717;28;20504;-65
2021/11/24 09:29:40;;;;;;;32.25;22.45;;;;;;;;;;5034276;28;20025;-66
2021/11/24 09:32:06;;;;;;;32.95;23.40;;;;;;;;;;5032259;28;20017;-66
2021/11/24 09:34:32;;;;;;;32.58;22.40;;;;;;;;;;5032236;28;20026;-65
2021/11/24 09:36:59;;;;;;;32.50;22.73;;;;;;;;;;5033862;28;20065;-66
2021/11/24 09:39:25;;;;;;;32.28;21.80;;;;;;;;;;5032137;28;20021;-67
2021/11/24 09:41:52;;;;;;;33.58;23.00;;;;;;;;;;5031511;28;20076;-67
2021/11/24 09:44:18;;;;;;;34.50;23.42;;;;;;;;;;5033410;28;20021;-66
2021/11/24 09:46:49;;;;;;;33.78;24.38;;;;;;;;;;5032843;28;20021;-65
2021/11/24 09:49:16;;;;;;;31.30;22.42;;;;;;;;;;5034503;28;20021;-66
2021/11/24 09:51:42;;;;;;;31.40;21.58;;;;;;;;;;5032291;28;20021;-66
2021/11/24 09:54:10;;;;;;;30.52;20.42;;;;;;;;;;5033048;28;20034;-66
2021/11/24 09:56:36;;;;;;;29.33;18.80;;;;;;;;;;5033753;28;20057;-65
2021/11/24 09:59:03;;;;;;;30.48;19.35;;;;;;;;;;5033447;28;20453;-65
2021/11/24 10:01:29;;;;;;;32.13;20.45;;;;;;;;;;5033443;28;20033;-66
2021/11/24 10:03:55;;;;;;;32.05;21.70;;;;;;;;;;5031968;28;20117;-66
2021/11/24 10:06:22;;;;;;;28.85;20.52;;;;;;;;;;5033052;28;20113;-67
2021/11/24 10:08:50;;;;;;;29.30;20.17;;;;;;;;;;5033437;28;20398;-66
2021/11/24 10:11:16;;;;;;;27.23;19.55;;;;;;;;;;5033261;28;20021;-66
2021/11/24 10:13:42;;;;;;;28.55;19.80;;;;;;;;;;5032728;28;20022;-65
2021/11/24 10:16:19;;;;;;;28.58;20.20;;;;;;;;;;5031900;28;20129;-65
2021/11/24 10:18:55;;;;;;;27.40;19.27;;;;;;;;;;5033497;28;20029;-65
2021/11/24 10:21:21;;;;;;;29.48;20.48;;;;;;;;;;5031733;28;20504;-65
2021/11/24 10:23:49;;;;;;;29.42;19.33;;;;;;;;;;5032788;28;20069;-65
2021/11/24 10:26:20;;;;;;;26.98;19.27;;;;;;;;;;5032938;28;20049;-66
2021/11/24 10:29:00;;;;;;;28.77;20.92;;;;;;;;;;5032950;28;20375;-66
2021/11/24 10:31:32;;;;;;;28.65;19.63;;;;;;;;;;5033362;28;20128;-65
2021/11/24 10:33:59;;;;;;;28.77;20.45;;;;;;;;;;5031470;28;20068;-65
2021/11/24 10:36:25;;;;;;;31.52;20.80;;;;;;;;;;5031522;28;20021;-64
2021/11/24 10:38:52;;;;;;;30.25;21.42;;;;;;;;;;5030675;28;20508;-66
2021/11/24 10:41:38;;;;;;;29.33;21.02;;;;;;;;;;5031470;28;20026;-65
2021/11/24 10:44:04;;;;;;;26.55;17.77;;;;;;;;;;5032312;28;20021;-66
2021/11/24 10:46:31;;;;;;;30.77;21.27;;;;;;;;;;5032401;28;20140;-66
2021/11/24 10:49:05;;;;;;;35.10;23.50;;;;;;;;;;5032205;28;20029;-65
2021/11/24 10:51:38;;;;;;;30.73;20.70;;;;;;;;;;5032223;28;20040;-65
2021/11/24 10:54:16;;;;;;;29.75;19.05;;;;;;;;;;5031060;28;20146;-65
2021/11/24 10:57:01;;;;;;;28.15;20.38;;;;;;;;;;5032395;28;20101;-66
2021/11/24 10:59:27;;;;;;;28.83;19.70;;;;;;;;;;5032320;28;20021;-66
2021/11/24 11:02:13;;;;;;;29.42;19.98;;;;;;;;;;5031907;28;20040;-65
2021/11/24 11:04:55;;;;;;;31.20;21.00;;;;;;;;;;5032232;28;20029;-66
2021/11/24 11:07:21;;;;;;;28.45;18.55;;;;;;;;;;5032459;28;20057;-66
2021/11/24 11:09:47;;;;;;;26.58;17.05;;;;;;;;;;5030881;28;20073;-66
2021/11/24 11:12:13;;;;;;;26.13;16.88;;;;;;;;;;5032084;28;20112;-67
2021/11/24 11:14:39;;;;;;;26.17;16.63;;;;;;;;;;5032045;28;20029;-66
2021/11/24 11:17:05;;;;;;;28.85;18.25;;;;;;;;;;5030622;28;20025;-65
2021/11/24 11:19:47;;;;;;;26.43;16.77;;;;;;;;;;4680033;28;10000505;-67
2021/11/24 11:22:19;;;;;;;29.08;18.13;;;;;;;;;;5027199;28;20816;-65
2021/11/24 11:24:46;;;;;;;28.20;17.10;;;;;;;;;;5027587;28;20037;-65
2021/11/24 11:27:12;;;;;;;27.70;18.10;;;;;;;;;;5029418;28;20021;-65
2021/11/24 11:29:40;;;;;;;26.05;17.75;;;;;;;;;;5028850;28;20045;-65
2021/11/24 11:32:07;;;;;;;28.73;18.30;;;;;;;;;;5026686;28;20033;-63
2021/11/24 11:34:33;;;;;;;29.33;19.25;;;;;;;;;;5028682;28;20072;-64
2021/11/24 11:36:59;;;;;;;32.30;19.65;;;;;;;;;;5027898;28;20030;-64
2021/11/24 11:39:26;;;;;;;31.50;20.67;;;;;;;;;;5026975;28;20060;-64
2021/11/24 11:41:53;;;;;;;35.85;22.98;;;;;;;;;;5027765;28;20607;-64
2021/11/24 11:44:19;;;;;;;34.40;22.15;;;;;;;;;;5027409;28;20022;-62
2021/11/24 11:46:47;;;;;;;36.15;23.73;;;;;;;;;;5028082;28;20021;-63
2021/11/24 11:49:15;;;;;;;32.90;20.85;;;;;;;;;;5029428;28;20033;-64
2021/11/24 11:51:42;;;;;;;29.15;18.00;;;;;;;;;;5030790;28;20022;-65
2021/11/24 11:54:09;;;;;;;27.88;18.50;;;;;;;;;;5030587;28;20112;-65
2021/11/24 11:56:37;;;;;;;27.52;18.70;;;;;;;;;;4681104;28;9999587;-63
2021/11/24 11:59:08;;;;;;;27.48;18.02;;;;;;;;;;5028240;28;20028;-65
2021/11/24 12:01:43;;;;;;;27.65;18.23;;;;;;;;;;5028195;28;20075;-61
2021/11/24 12:04:13;;;;;;;29.15;18.42;;;;;;;;;;5028916;28;20076;-65
2021/11/24 12:06:44;;;;;;;31.95;17.95;;;;;;;;;;5033900;28;20085;-65
2021/11/24 12:09:10;;;;;;;28.02;17.42;;;;;;;;;;5039674;28;20656;-66
2021/11/24 12:11:55;;;;;;;28.60;18.50;;;;;;;;;;5054432;28;20029;-62
2021/11/24 12:14:42;;;;;;;28.77;17.08;;;;;;;;;;5052970;28;20500;-65
2021/11/24 12:17:27;;;;;;;29.37;18.23;;;;;;;;;;5054619;28;20488;-62
2021/11/24 12:20:14;;;;;;;32.03;19.20;;;;;;;;;;5054570;28;20021;-65
2021/11/24 12:25:23;;;;;;;32.53;19.65;;;;;;;;;;5054426;28;20021;-65
2021/11/24 12:27:58;;;;;;;31.42;19.05;;;;;;;;;;5053129;28;20025;-64
2021/11/24 12:33:09;;;;;;;30.77;18.40;;;;;;;;;;5054415;28;20025;-66
2021/11/24 12:35:37;;;;;;;32.88;19.88;;;;;;;;;;5054385;28;20032;-64
2021/11/24 12:38:03;;;;;;;35.63;20.20;;;;;;;;;;5054275;28;20021;-67
2021/11/24 12:40:30;;;;;;;31.10;18.73;;;;;;;;;;5052888;28;20124;-65
2021/11/24 12:43:01;;;;;;;31.05;20.10;;;;;;;;;;5054087;28;20092;-61
2021/11/24 12:45:28;;;;;;;33.53;20.35;;;;;;;;;;5054073;28;20025;-64
2021/11/24 12:47:57;;;;;;;32.40;20.73;;;;;;;;;;5053580;28;20104;-64
2021/11/24 12:50:24;;;;;;;34.35;20.42;;;;;;;;;;5052469;28;20396;-64
2021/11/24 12:52:57;;;;;;;33.15;21.52;;;;;;;;;;5051753;28;20253;-64
2021/11/24 12:55:23;;;;;;;34.33;20.35;;;;;;;;;;5052079;28;20037;-65
2021/11/24 12:57:49;;;;;;;34.42;21.40;;;;;;;;;;5042613;28;20064;-65
2021/11/24 13:00:24;;;;;;;31.20;19.90;;;;;;;;;;5033243;28;20379;-65
2021/11/24 13:02:51;;;;;;;39.25;21.48;;;;;;;;;;5032390;28;20018;-65
2021/11/24 13:05:17;;;;;;;32.15;20.95;;;;;;;;;;5032640;28;20021;-65
2021/11/24 13:07:50;;;;;;;36.80;22.15;;;;;;;;;;5033606;28;20029;-64
2021/11/24 13:10:20;;;;;;;35.55;20.08;;;;;;;;;;5032486;28;20113;-65
2021/11/24 13:12:46;;;;;;;34.65;22.25;;;;;;;;;;5033208;28;20400;-66
2021/11/24 13:15:12;;;;;;;37.55;21.20;;;;;;;;;;5028894;28;20105;-65
2021/11/24 13:17:40;;;;;;;36.45;22.23;;;;;;;;;;5033812;28;20087;-64
2021/11/24 13:20:11;;;;;;;35.25;21.75;;;;;;;;;;5035542;28;20022;-64
2021/11/24 13:22:39;;;;;;;40.92;23.23;;;6.40;99.90;;;;;;5032852;28;20037;-63
2021/11/24 13:25:28;;;;;;;34.33;21.13;;;7.90;99.90;;;;;;5028845;28;20360;-65
2021/11/24 13:28:06;;;;;;;40.17;23.55;;;7.90;99.90;;;;;;5020011;28;20033;-65
2021/11/24 13:30:42;;;;;;;38.35;22.08;;;7.90;99.90;;;;;;5033731;28;20033;-65
2021/11/24 13:33:11;;;;;;;37.80;21.92;;;8.00;99.90;;;;;;5032513;28;20029;-65
2021/11/24 13:35:43;;;;;;;36.75;21.73;;;7.80;99.90;;;;;;5032760;28;20033;-65
2021/11/24 13:38:15;;;;;;;39.45;22.13;;;7.90;99.90;;;;;;5033015;28;20035;-64
2021/11/24 13:40:44;;;;;;;37.03;22.23;;;7.90;99.90;;;;;;5031740;28;20064;-66
2021/11/24 13:43:11;;;;;;;;;;;7.90;99.90;;;;;;5032620;28;20025;-66
2021/11/24 13:45:39;;;;;;;42.78;22.25;;;7.90;99.90;;;;;;5032582;28;19958;-65
2021/11/24 13:48:14;;;;;;;38.40;23.05;;;7.90;99.90;;;;;;5032305;28;20100;-65
2021/11/24 13:50:40;;;;;;;38.00;21.55;;;7.90;99.90;;;;;;5032947;28;20041;-65
2021/11/24 13:53:32;;;;;;;39.90;24.95;;;7.90;99.90;;;;;;5032215;28;20037;-65
2021/11/24 13:56:20;;;;;;;35.72;22.00;;;7.90;99.90;;;;;;5032801;28;20048;-65
2021/11/24 13:58:54;;;;;;;;;;;7.80;99.90;;;;;;5032957;28;20074;-65
2021/11/24 14:01:27;;;;;;;41.22;23.55;;;7.80;99.90;;;;;;5032901;28;20000;-65
2021/11/24 14:04:03;;;;;;;41.88;24.77;;;7.80;99.90;;;;;;5031764;28;20025;-65
2021/11/24 14:06:43;;;;;;;39.78;24.13;;;7.80;99.90;;;;;;5032945;28;20442;-65
2021/11/24 14:09:20;;;;;;;37.97;22.73;;;7.70;99.90;;;;;;5033166;28;20363;-65
2021/11/24 14:11:58;;;;;;;41.25;22.50;;;7.70;99.90;;;;;;5031410;28;20062;-64
2021/11/24 14:14:27;;;;;;;;;;;7.70;99.90;;;;;;5032456;28;20053;-65
2021/11/24 14:16:59;;;;;;;39.58;23.83;;;7.70;99.90;;;;;;5031857;28;19909;-66
2021/11/24 14:19:30;;;;;;;44.15;23.70;;;7.70;99.90;;;;;;5032825;28;20390;-66